sensor_id;sensor_type;location;lat;lon;timestamp;temperature;humidity
11532;DHT22;5822;51.000;5.874;2022-12-18T00:02:13;-0.70;99.90
11532;DHT22;5822;51.000;5.874;2022-12-18T00:04:39;-0.70;99.90
11532;DHT22;5822;51.000;5.874;2022-12-18T00:07:04;-0.60;99.90
11532;DHT22;5822;51.000;5.874;2022-12-18T00:09:30;-0.40;99.90
11532;DHT22;5822;51.000;5.874;2022-12-18T00:11:55;-0.20;99.90
11532;DHT22;5822;51.000;5.874;2022-12-18T00:14:21;-0.20;99.90
11532;DHT22;5822;51.000;5.874;2022-12-18T00:16:47;-0.20;99.90
11532;DHT22;5822;51.000;5.874;2022-12-18T00:19:13;-0.30;99.90
11532;DHT22;5822;51.000;5.874;2022-12-18T00:21:40;-0.30;99.90
11532;DHT22;5822;51.000;5.874;2022-12-18T00:24:06;-0.50;99.90
11532;DHT22;5822;51.000;5.874;2022-12-18T00:26:33;-0.60;99.90
11532;DHT22;5822;51.000;5.874;2022-12-18T00:29:04;-0.70;99.90
11532;DHT22;5822;51.000;5.874;2022-12-18T00:31:31;-0.80;99.90
11532;DHT22;5822;51.000;5.874;2022-12-18T00:33:57;-0.80;99.90
11532;DHT22;5822;51.000;5.874;2022-12-18T00:36:25;-0.80;99.90
11532;DHT22;5822;51.000;5.874;2022-12-18T00:38:53;-0.80;99.90
11532;DHT22;5822;51.000;5.874;2022-12-18T00:41:19;-0.70;99.90
11532;DHT22;5822;51.000;5.874;2022-12-18T00:44:05;-0.50;99.90
11532;DHT22;5822;51.000;5.874;2022-12-18T00:46:31;-0.30;99.90
11532;DHT22;5822;51.000;5.874;2022-12-18T00:48:57;-0.20;99.90
11532;DHT22;5822;51.000;5.874;2022-12-18T00:51:24;-0.10;99.90
11532;DHT22;5822;51.000;5.874;2022-12-18T00:53:50;-0.10;99.90
11532;DHT22;5822;51.000;5.874;2022-12-18T00:56:15;-0.10;99.90
11532;DHT22;5822;51.000;5.874;2022-12-18T00:58:41;-0.30;99.90
11532;DHT22;5822;51.000;5.874;2022-12-18T01:01:07;-0.50;99.90
11532;DHT22;5822;51.000;5.874;2022-12-18T01:03:33;-0.60;99.90
11532;DHT22;5822;51.000;5.874;2022-12-18T01:05:58;-0.70;99.90
11532;DHT22;5822;51.000;5.874;2022-12-18T01:08:24;-0.70;99.90
11532;DHT22;5822;51.000;5.874;2022-12-18T01:10:50;-0.50;99.90
11532;DHT22;5822;51.000;5.874;2022-12-18T01:13:15;-0.60;99.90
11532;DHT22;5822;51.000;5.874;2022-12-18T01:15:48;-0.70;99.90
11532;DHT22;5822;51.000;5.874;2022-12-18T01:18:14;-0.80;99.90
11532;DHT22;5822;51.000;5.874;2022-12-18T01:20:40;-0.70;99.90
11532;DHT22;5822;51.000;5.874;2022-12-18T01:23:05;-0.60;99.90
11532;DHT22;5822;51.000;5.874;2022-12-18T01:25:31;-0.50;99.90
11532;DHT22;5822;51.000;5.874;2022-12-18T01:27:57;-0.50;99.90
11532;DHT22;5822;51.000;5.874;2022-12-18T01:30:22;-0.50;99.90
11532;DHT22;5822;51.000;5.874;2022-12-18T01:32:48;-0.40;99.90
11532;DHT22;5822;51.000;5.874;2022-12-18T01:35:14;-0.40;99.90
11532;DHT22;5822;51.000;5.874;2022-12-18T01:37:40;-0.30;99.90
11532;DHT22;5822;51.000;5.874;2022-12-18T01:40:06;-0.30;99.90
11532;DHT22;5822;51.000;5.874;2022-12-18T01:42:32;-0.40;99.90
11532;DHT22;5822;51.000;5.874;2022-12-18T01:47:45;-0.60;99.90
11532;DHT22;5822;51.000;5.874;2022-12-18T01:50:16;-0.70;99.90
11532;DHT22;5822;51.000;5.874;2022-12-18T01:52:48;-0.60;99.90
11532;DHT22;5822;51.000;5.874;2022-12-18T01:55:17;-0.50;99.90
11532;DHT22;5822;51.000;5.874;2022-12-18T01:57:44;-0.60;99.90
11532;DHT22;5822;51.000;5.874;2022-12-18T02:00:18;-0.40;99.90
11532;DHT22;5822;51.000;5.874;2022-12-18T02:02:45;-0.40;99.90
11532;DHT22;5822;51.000;5.874;2022-12-18T02:05:14;-0.30;99.90
11532;DHT22;5822;51.000;5.874;2022-12-18T02:13:11;-0.80;99.90
11532;DHT22;5822;51.000;5.874;2022-12-18T02:15:44;-0.80;99.90
11532;DHT22;5822;51.000;5.874;2022-12-18T02:18:20;-0.80;99.90
11532;DHT22;5822;51.000;5.874;2022-12-18T02:23:47;-0.60;99.90
11532;DHT22;5822;51.000;5.874;2022-12-18T02:26:37;-0.50;99.90
11532;DHT22;5822;51.000;5.874;2022-12-18T02:29:15;-0.50;99.90
11532;DHT22;5822;51.000;5.874;2022-12-18T02:31:45;-0.50;99.90
11532;DHT22;5822;51.000;5.874;2022-12-18T02:34:13;-0.50;99.90
11532;DHT22;5822;51.000;5.874;2022-12-18T02:36:41;-0.40;99.90
11532;DHT22;5822;51.000;5.874;2022-12-18T02:39:11;-0.40;99.90
11532;DHT22;5822;51.000;5.874;2022-12-18T02:41:37;-0.30;99.90
11532;DHT22;5822;51.000;5.874;2022-12-18T02:44:09;-0.40;99.90
11532;DHT22;5822;51.000;5.874;2022-12-18T02:46:44;-0.30;99.90
11532;DHT22;5822;51.000;5.874;2022-12-18T02:54:55;-0.50;99.90
11532;DHT22;5822;51.000;5.874;2022-12-18T03:05:17;-0.30;99.90
11532;DHT22;5822;51.000;5.874;2022-12-18T03:07:49;-0.30;99.90
11532;DHT22;5822;51.000;5.874;2022-12-18T03:10:21;-0.30;99.90
11532;DHT22;5822;51.000;5.874;2022-12-18T03:15:55;-0.30;99.90
11532;DHT22;5822;51.000;5.874;2022-12-18T03:18:49;-0.30;99.90
11532;DHT22;5822;51.000;5.874;2022-12-18T03:21:21;-0.30;99.90
11532;DHT22;5822;51.000;5.874;2022-12-18T03:23:49;-0.40;99.90
11532;DHT22;5822;51.000;5.874;2022-12-18T03:26:19;-0.30;99.90
11532;DHT22;5822;51.000;5.874;2022-12-18T03:28:51;-0.30;99.90
11532;DHT22;5822;51.000;5.874;2022-12-18T03:31:18;-0.30;99.90
11532;DHT22;5822;51.000;5.874;2022-12-18T03:36:17;-0.40;99.90
11532;DHT22;5822;51.000;5.874;2022-12-18T03:38:43;-0.30;99.90
11532;DHT22;5822;51.000;5.874;2022-12-18T03:41:32;-0.20;99.90
11532;DHT22;5822;51.000;5.874;2022-12-18T03:44:10;-0.20;99.90
11532;DHT22;5822;51.000;5.874;2022-12-18T03:46:55;-0.20;99.90
11532;DHT22;5822;51.000;5.874;2022-12-18T03:52:24;-0.30;99.90
11532;DHT22;5822;51.000;5.874;2022-12-18T03:54:52;-0.30;99.90
11532;DHT22;5822;51.000;5.874;2022-12-18T03:57:23;-0.20;99.90
11532;DHT22;5822;51.000;5.874;2022-12-18T03:59:55;-0.20;99.90
11532;DHT22;5822;51.000;5.874;2022-12-18T04:02:22;-0.20;99.90
11532;DHT22;5822;51.000;5.874;2022-12-18T04:04:55;-0.30;99.90
11532;DHT22;5822;51.000;5.874;2022-12-18T04:07:22;-0.20;99.90
11532;DHT22;5822;51.000;5.874;2022-12-18T04:09:49;-0.30;99.90
11532;DHT22;5822;51.000;5.874;2022-12-18T04:12:16;-0.20;99.90
11532;DHT22;5822;51.000;5.874;2022-12-18T04:14:41;-0.20;99.90
11532;DHT22;5822;51.000;5.874;2022-12-18T04:17:07;-0.20;99.90
11532;DHT22;5822;51.000;5.874;2022-12-18T04:19:33;-0.20;99.90
11532;DHT22;5822;51.000;5.874;2022-12-18T04:21:58;-0.30;99.90
11532;DHT22;5822;51.000;5.874;2022-12-18T04:24:24;-0.30;99.90
11532;DHT22;5822;51.000;5.874;2022-12-18T04:26:50;-0.30;99.90
11532;DHT22;5822;51.000;5.874;2022-12-18T04:29:15;-0.20;99.90
11532;DHT22;5822;51.000;5.874;2022-12-18T04:31:41;-0.20;99.90
11532;DHT22;5822;51.000;5.874;2022-12-18T04:34:06;-0.20;99.90
11532;DHT22;5822;51.000;5.874;2022-12-18T04:36:32;-0.20;99.90
11532;DHT22;5822;51.000;5.874;2022-12-18T04:38:58;-0.20;99.90
11532;DHT22;5822;51.000;5.874;2022-12-18T04:41:23;-0.20;99.90
11532;DHT22;5822;51.000;5.874;2022-12-18T04:43:49;-0.20;99.90
11532;DHT22;5822;51.000;5.874;2022-12-18T04:46:15;-0.10;99.90
11532;DHT22;5822;51.000;5.874;2022-12-18T04:48:40;-0.10;99.90
11532;DHT22;5822;51.000;5.874;2022-12-18T04:51:06;-0.10;99.90
11532;DHT22;5822;51.000;5.874;2022-12-18T04:53:32;-0.10;99.90
11532;DHT22;5822;51.000;5.874;2022-12-18T04:56:06;-0.20;99.90
11532;DHT22;5822;51.000;5.874;2022-12-18T04:58:33;-0.30;99.90
11532;DHT22;5822;51.000;5.874;2022-12-18T05:00:58;-0.30;99.90
11532;DHT22;5822;51.000;5.874;2022-12-18T05:03:24;-0.30;99.90
11532;DHT22;5822;51.000;5.874;2022-12-18T05:05:50;-0.20;99.90
11532;DHT22;5822;51.000;5.874;2022-12-18T05:08:17;-0.20;99.90
11532;DHT22;5822;51.000;5.874;2022-12-18T05:10:42;-0.30;99.90
11532;DHT22;5822;51.000;5.874;2022-12-18T05:13:08;-0.40;99.90
11532;DHT22;5822;51.000;5.874;2022-12-18T05:15:34;-0.50;99.90
11532;DHT22;5822;51.000;5.874;2022-12-18T05:18:00;-0.50;99.90
11532;DHT22;5822;51.000;5.874;2022-12-18T05:20:27;-0.60;99.90
11532;DHT22;5822;51.000;5.874;2022-12-18T05:22:53;-0.50;99.90
11532;DHT22;5822;51.000;5.874;2022-12-18T05:25:19;-0.50;99.90
11532;DHT22;5822;51.000;5.874;2022-12-18T05:27:45;-0.40;99.90
11532;DHT22;5822;51.000;5.874;2022-12-18T05:30:12;-0.30;99.90
11532;DHT22;5822;51.000;5.874;2022-12-18T05:32:38;-0.20;99.90
11532;DHT22;5822;51.000;5.874;2022-12-18T05:35:05;-0.30;99.90
11532;DHT22;5822;51.000;5.874;2022-12-18T05:37:31;-0.20;99.90
11532;DHT22;5822;51.000;5.874;2022-12-18T05:39:56;-0.20;99.90
11532;DHT22;5822;51.000;5.874;2022-12-18T05:42:22;-0.20;99.90
11532;DHT22;5822;51.000;5.874;2022-12-18T05:44:48;-0.30;99.90
11532;DHT22;5822;51.000;5.874;2022-12-18T05:47:13;-0.30;99.90
11532;DHT22;5822;51.000;5.874;2022-12-18T05:49:39;-0.20;99.90
11532;DHT22;5822;51.000;5.874;2022-12-18T05:52:05;-0.20;99.90
11532;DHT22;5822;51.000;5.874;2022-12-18T05:54:30;-0.40;99.90
11532;DHT22;5822;51.000;5.874;2022-12-18T05:56:57;-0.50;99.90
11532;DHT22;5822;51.000;5.874;2022-12-18T05:59:22;-0.70;99.90
11532;DHT22;5822;51.000;5.874;2022-12-18T06:01:48;-0.70;99.90
11532;DHT22;5822;51.000;5.874;2022-12-18T06:04:14;-0.80;99.90
11532;DHT22;5822;51.000;5.874;2022-12-18T06:06:39;-0.80;99.90
11532;DHT22;5822;51.000;5.874;2022-12-18T06:09:05;-0.80;99.90
11532;DHT22;5822;51.000;5.874;2022-12-18T06:11:35;-0.80;99.90
11532;DHT22;5822;51.000;5.874;2022-12-18T06:14:04;-0.70;99.90
11532;DHT22;5822;51.000;5.874;2022-12-18T06:16:30;-0.80;99.90
11532;DHT22;5822;51.000;5.874;2022-12-18T06:18:57;-0.50;99.90
11532;DHT22;5822;51.000;5.874;2022-12-18T06:21:23;-0.50;99.90
11532;DHT22;5822;51.000;5.874;2022-12-18T06:23:49;-0.60;99.90
11532;DHT22;5822;51.000;5.874;2022-12-18T06:26:14;-0.70;99.90
11532;DHT22;5822;51.000;5.874;2022-12-18T06:28:40;-0.70;99.90
11532;DHT22;5822;51.000;5.874;2022-12-18T06:31:07;-0.80;99.90
11532;DHT22;5822;51.000;5.874;2022-12-18T06:33:33;-0.80;99.90
11532;DHT22;5822;51.000;5.874;2022-12-18T06:36:01;-0.90;99.90
11532;DHT22;5822;51.000;5.874;2022-12-18T06:38:27;-0.90;99.90
11532;DHT22;5822;51.000;5.874;2022-12-18T06:40:53;-0.90;99.90
11532;DHT22;5822;51.000;5.874;2022-12-18T06:43:18;-0.90;99.90
11532;DHT22;5822;51.000;5.874;2022-12-18T06:45:44;-0.90;99.90
11532;DHT22;5822;51.000;5.874;2022-12-18T06:48:10;-0.90;99.90
11532;DHT22;5822;51.000;5.874;2022-12-18T06:50:35;-0.90;99.90
11532;DHT22;5822;51.000;5.874;2022-12-18T06:53:01;-0.80;99.90
11532;DHT22;5822;51.000;5.874;2022-12-18T06:55:26;-0.70;99.90
11532;DHT22;5822;51.000;5.874;2022-12-18T06:57:52;-0.60;99.90
11532;DHT22;5822;51.000;5.874;2022-12-18T07:00:18;-0.50;99.90
11532;DHT22;5822;51.000;5.874;2022-12-18T07:02:43;-0.60;99.90
11532;DHT22;5822;51.000;5.874;2022-12-18T07:05:09;-0.70;99.90
11532;DHT22;5822;51.000;5.874;2022-12-18T07:07:35;-0.70;99.90
11532;DHT22;5822;51.000;5.874;2022-12-18T07:10:00;-0.60;99.90
11532;DHT22;5822;51.000;5.874;2022-12-18T07:12:29;-0.50;99.90
11532;DHT22;5822;51.000;5.874;2022-12-18T07:14:54;-0.50;99.90
11532;DHT22;5822;51.000;5.874;2022-12-18T07:17:20;-0.60;99.90
11532;DHT22;5822;51.000;5.874;2022-12-18T07:19:46;-0.70;99.90
11532;DHT22;5822;51.000;5.874;2022-12-18T07:22:11;-0.70;99.90
11532;DHT22;5822;51.000;5.874;2022-12-18T07:24:37;-0.70;99.90
11532;DHT22;5822;51.000;5.874;2022-12-18T07:27:02;-0.70;99.90
11532;DHT22;5822;51.000;5.874;2022-12-18T07:29:28;-0.80;99.90
11532;DHT22;5822;51.000;5.874;2022-12-18T07:31:54;-0.80;99.90
11532;DHT22;5822;51.000;5.874;2022-12-18T07:34:19;-0.70;99.90
11532;DHT22;5822;51.000;5.874;2022-12-18T07:36:45;-0.60;99.90
11532;DHT22;5822;51.000;5.874;2022-12-18T07:39:11;-0.60;99.90
11532;DHT22;5822;51.000;5.874;2022-12-18T07:41:37;-0.50;99.90
11532;DHT22;5822;51.000;5.874;2022-12-18T07:44:02;-0.60;99.90
11532;DHT22;5822;51.000;5.874;2022-12-18T07:46:28;-0.40;99.90
11532;DHT22;5822;51.000;5.874;2022-12-18T07:48:54;-0.50;99.90
11532;DHT22;5822;51.000;5.874;2022-12-18T07:51:19;-0.50;99.90
11532;DHT22;5822;51.000;5.874;2022-12-18T07:53:45;-0.60;99.90
11532;DHT22;5822;51.000;5.874;2022-12-18T07:56:12;-0.50;99.90
11532;DHT22;5822;51.000;5.874;2022-12-18T07:58:37;-0.60;99.90
11532;DHT22;5822;51.000;5.874;2022-12-18T08:01:08;-0.60;99.90
11532;DHT22;5822;51.000;5.874;2022-12-18T08:03:34;-0.70;99.90
11532;DHT22;5822;51.000;5.874;2022-12-18T08:06:05;-0.50;99.90
11532;DHT22;5822;51.000;5.874;2022-12-18T08:08:32;-0.60;99.90
11532;DHT22;5822;51.000;5.874;2022-12-18T08:10:57;-0.60;99.90
11532;DHT22;5822;51.000;5.874;2022-12-18T08:13:24;-0.60;99.90
11532;DHT22;5822;51.000;5.874;2022-12-18T08:16:05;-0.50;99.90
11532;DHT22;5822;51.000;5.874;2022-12-18T08:18:33;-0.40;99.90
11532;DHT22;5822;51.000;5.874;2022-12-18T08:21:14;-0.40;99.90
11532;DHT22;5822;51.000;5.874;2022-12-18T08:23:41;-0.40;99.90
11532;DHT22;5822;51.000;5.874;2022-12-18T08:26:07;-0.40;99.90
11532;DHT22;5822;51.000;5.874;2022-12-18T08:28:33;-0.40;99.90
11532;DHT22;5822;51.000;5.874;2022-12-18T08:30:59;-0.40;99.90
11532;DHT22;5822;51.000;5.874;2022-12-18T08:33:25;-0.30;99.90
11532;DHT22;5822;51.000;5.874;2022-12-18T08:35:52;-0.20;99.90
11532;DHT22;5822;51.000;5.874;2022-12-18T08:38:17;-0.20;99.90
11532;DHT22;5822;51.000;5.874;2022-12-18T08:40:43;-0.30;99.90
11532;DHT22;5822;51.000;5.874;2022-12-18T08:43:12;-0.20;99.90
11532;DHT22;5822;51.000;5.874;2022-12-18T08:45:56;-0.30;99.90
11532;DHT22;5822;51.000;5.874;2022-12-18T08:48:22;-0.20;99.90
11532;DHT22;5822;51.000;5.874;2022-12-18T08:50:55;-0.30;99.90
11532;DHT22;5822;51.000;5.874;2022-12-18T08:53:20;-0.30;99.90
11532;DHT22;5822;51.000;5.874;2022-12-18T08:55:46;-0.20;99.90
11532;DHT22;5822;51.000;5.874;2022-12-18T08:58:12;-0.10;99.90
11532;DHT22;5822;51.000;5.874;2022-12-18T09:00:37;0.00;99.90
11532;DHT22;5822;51.000;5.874;2022-12-18T09:03:03;0.10;99.90
11532;DHT22;5822;51.000;5.874;2022-12-18T09:05:29;0.20;99.90
11532;DHT22;5822;51.000;5.874;2022-12-18T09:07:55;0.20;99.90
11532;DHT22;5822;51.000;5.874;2022-12-18T09:10:21;0.20;99.90
11532;DHT22;5822;51.000;5.874;2022-12-18T09:12:47;0.30;99.90
11532;DHT22;5822;51.000;5.874;2022-12-18T09:15:13;0.30;99.90
11532;DHT22;5822;51.000;5.874;2022-12-18T09:17:38;0.40;99.90
11532;DHT22;5822;51.000;5.874;2022-12-18T09:20:04;0.40;99.90
11532;DHT22;5822;51.000;5.874;2022-12-18T09:22:30;0.50;99.90
11532;DHT22;5822;51.000;5.874;2022-12-18T09:24:56;0.50;99.90
11532;DHT22;5822;51.000;5.874;2022-12-18T09:27:21;0.60;99.90
11532;DHT22;5822;51.000;5.874;2022-12-18T09:29:47;0.70;99.90
11532;DHT22;5822;51.000;5.874;2022-12-18T09:32:13;0.50;99.90
11532;DHT22;5822;51.000;5.874;2022-12-18T09:34:38;0.60;99.90
11532;DHT22;5822;51.000;5.874;2022-12-18T09:37:04;0.60;99.90
11532;DHT22;5822;51.000;5.874;2022-12-18T09:39:29;0.70;99.90
11532;DHT22;5822;51.000;5.874;2022-12-18T09:41:57;0.70;99.90
11532;DHT22;5822;51.000;5.874;2022-12-18T09:44:35;0.70;99.90
11532;DHT22;5822;51.000;5.874;2022-12-18T09:47:24;0.60;99.90
11532;DHT22;5822;51.000;5.874;2022-12-18T09:49:56;0.80;99.90
11532;DHT22;5822;51.000;5.874;2022-12-18T09:52:34;1.00;99.90
11532;DHT22;5822;51.000;5.874;2022-12-18T09:57:49;1.20;99.90
11532;DHT22;5822;51.000;5.874;2022-12-18T10:00:20;1.20;99.90
11532;DHT22;5822;51.000;5.874;2022-12-18T10:02:46;1.30;99.90
11532;DHT22;5822;51.000;5.874;2022-12-18T10:10:51;1.50;99.90
11532;DHT22;5822;51.000;5.874;2022-12-18T10:19:04;1.60;99.90
11532;DHT22;5822;51.000;5.874;2022-12-18T10:21:58;1.70;99.90
11532;DHT22;5822;51.000;5.874;2022-12-18T10:27:09;1.70;99.90
11532;DHT22;5822;51.000;5.874;2022-12-18T10:29:38;1.90;99.90
11532;DHT22;5822;51.000;5.874;2022-12-18T10:32:03;1.80;99.90
11532;DHT22;5822;51.000;5.874;2022-12-18T10:34:30;1.70;99.90
11532;DHT22;5822;51.000;5.874;2022-12-18T10:36:56;1.80;99.90
11532;DHT22;5822;51.000;5.874;2022-12-18T10:39:24;1.80;99.90
11532;DHT22;5822;51.000;5.874;2022-12-18T10:41:51;1.90;99.90
11532;DHT22;5822;51.000;5.874;2022-12-18T10:44:20;1.90;99.90
11532;DHT22;5822;51.000;5.874;2022-12-18T10:46:48;1.90;99.90
11532;DHT22;5822;51.000;5.874;2022-12-18T10:49:34;2.00;99.90
11532;DHT22;5822;51.000;5.874;2022-12-18T10:52:18;2.10;99.90
11532;DHT22;5822;51.000;5.874;2022-12-18T10:54:57;2.10;99.90
11532;DHT22;5822;51.000;5.874;2022-12-18T10:57:39;2.10;99.90
11532;DHT22;5822;51.000;5.874;2022-12-18T11:00:38;2.10;99.90
11532;DHT22;5822;51.000;5.874;2022-12-18T11:03:30;2.10;99.90
11532;DHT22;5822;51.000;5.874;2022-12-18T11:08:40;2.30;99.90
11532;DHT22;5822;51.000;5.874;2022-12-18T11:11:20;2.40;99.90
11532;DHT22;5822;51.000;5.874;2022-12-18T11:16:37;2.60;99.90
11532;DHT22;5822;51.000;5.874;2022-12-18T11:22:00;2.60;99.90
11532;DHT22;5822;51.000;5.874;2022-12-18T11:24:35;2.60;99.90
11532;DHT22;5822;51.000;5.874;2022-12-18T11:27:03;2.70;99.90
11532;DHT22;5822;51.000;5.874;2022-12-18T11:29:38;2.70;99.90
11532;DHT22;5822;51.000;5.874;2022-12-18T11:32:38;2.70;99.90
11532;DHT22;5822;51.000;5.874;2022-12-18T11:35:16;2.60;99.90
11532;DHT22;5822;51.000;5.874;2022-12-18T11:37:48;2.60;99.90
11532;DHT22;5822;51.000;5.874;2022-12-18T11:40:21;2.60;99.90
11532;DHT22;5822;51.000;5.874;2022-12-18T11:42:56;2.50;99.90
11532;DHT22;5822;51.000;5.874;2022-12-18T11:45:27;2.60;99.90
11532;DHT22;5822;51.000;5.874;2022-12-18T11:48:01;2.70;99.90
11532;DHT22;5822;51.000;5.874;2022-12-18T11:50:54;2.70;99.90
11532;DHT22;5822;51.000;5.874;2022-12-18T11:53:21;2.70;99.90
11532;DHT22;5822;51.000;5.874;2022-12-18T12:07:02;3.00;99.90
11532;DHT22;5822;51.000;5.874;2022-12-18T12:09:40;3.10;99.90
11532;DHT22;5822;51.000;5.874;2022-12-18T12:18:06;3.30;99.90
11532;DHT22;5822;51.000;5.874;2022-12-18T12:31:33;3.40;99.90
11532;DHT22;5822;51.000;5.874;2022-12-18T12:40:20;3.40;99.90
11532;DHT22;5822;51.000;5.874;2022-12-18T12:42:54;3.50;99.90
11532;DHT22;5822;51.000;5.874;2022-12-18T12:48:07;3.60;99.90
11532;DHT22;5822;51.000;5.874;2022-12-18T12:50:40;3.40;99.90
11532;DHT22;5822;51.000;5.874;2022-12-18T12:53:08;3.40;99.90
11532;DHT22;5822;51.000;5.874;2022-12-18T12:55:37;3.50;99.90
11532;DHT22;5822;51.000;5.874;2022-12-18T13:03:53;3.70;99.90
11532;DHT22;5822;51.000;5.874;2022-12-18T13:06:47;3.70;99.90
11532;DHT22;5822;51.000;5.874;2022-12-18T13:09:15;3.80;99.90
11532;DHT22;5822;51.000;5.874;2022-12-18T13:14:39;3.70;99.90
11532;DHT22;5822;51.000;5.874;2022-12-18T13:19:42;3.70;99.90
11532;DHT22;5822;51.000;5.874;2022-12-18T13:22:28;3.80;99.90
11532;DHT22;5822;51.000;5.874;2022-12-18T13:24:54;3.70;99.90
11532;DHT22;5822;51.000;5.874;2022-12-18T13:40:59;3.90;99.90
11532;DHT22;5822;51.000;5.874;2022-12-18T13:43:41;3.80;99.90
11532;DHT22;5822;51.000;5.874;2022-12-18T13:51:44;3.70;99.90
11532;DHT22;5822;51.000;5.874;2022-12-18T13:54:38;3.70;99.90
11532;DHT22;5822;51.000;5.874;2022-12-18T13:57:23;3.70;99.90
11532;DHT22;5822;51.000;5.874;2022-12-18T13:59:50;3.70;99.90
11532;DHT22;5822;51.000;5.874;2022-12-18T14:02:24;3.80;99.90
11532;DHT22;5822;51.000;5.874;2022-12-18T14:04:51;3.90;99.90
11532;DHT22;5822;51.000;5.874;2022-12-18T14:07:24;3.70;99.90
11532;DHT22;5822;51.000;5.874;2022-12-18T14:09:58;3.70;99.90
11532;DHT22;5822;51.000;5.874;2022-12-18T14:12:26;3.70;99.90
11532;DHT22;5822;51.000;5.874;2022-12-18T14:20:24;3.70;99.90
11532;DHT22;5822;51.000;5.874;2022-12-18T14:22:50;3.80;99.90
11532;DHT22;5822;51.000;5.874;2022-12-18T14:25:24;3.80;99.90
11532;DHT22;5822;51.000;5.874;2022-12-18T14:30:31;3.60;99.90
11532;DHT22;5822;51.000;5.874;2022-12-18T14:33:06;3.70;99.90
11532;DHT22;5822;51.000;5.874;2022-12-18T14:35:36;3.80;99.90
11532;DHT22;5822;51.000;5.874;2022-12-18T14:43:38;3.60;99.90
11532;DHT22;5822;51.000;5.874;2022-12-18T14:46:06;3.60;99.90
11532;DHT22;5822;51.000;5.874;2022-12-18T14:48:51;3.80;99.90
11532;DHT22;5822;51.000;5.874;2022-12-18T14:51:28;3.70;99.90
11532;DHT22;5822;51.000;5.874;2022-12-18T14:54:06;3.70;99.90
11532;DHT22;5822;51.000;5.874;2022-12-18T14:56:48;3.80;99.90
11532;DHT22;5822;51.000;5.874;2022-12-18T14:59:15;3.80;99.90
11532;DHT22;5822;51.000;5.874;2022-12-18T15:04:31;3.80;99.90
11532;DHT22;5822;51.000;5.874;2022-12-18T15:07:18;3.80;99.90
11532;DHT22;5822;51.000;5.874;2022-12-18T15:10:11;3.90;99.90
11532;DHT22;5822;51.000;5.874;2022-12-18T15:12:41;3.90;99.90
11532;DHT22;5822;51.000;5.874;2022-12-18T15:23:46;3.70;99.90
11532;DHT22;5822;51.000;5.874;2022-12-18T15:26:14;3.60;99.90
11532;DHT22;5822;51.000;5.874;2022-12-18T15:28:50;3.50;99.90
11532;DHT22;5822;51.000;5.874;2022-12-18T15:33:44;3.50;99.90
11532;DHT22;5822;51.000;5.874;2022-12-18T15:36:13;3.50;99.90
11532;DHT22;5822;51.000;5.874;2022-12-18T15:38:39;3.50;99.90
11532;DHT22;5822;51.000;5.874;2022-12-18T15:41:05;3.60;99.90
11532;DHT22;5822;51.000;5.874;2022-12-18T15:43:31;3.60;99.90
11532;DHT22;5822;51.000;5.874;2022-12-18T15:46:20;3.50;99.90
11532;DHT22;5822;51.000;5.874;2022-12-18T15:48:48;3.40;99.90
11532;DHT22;5822;51.000;5.874;2022-12-18T15:51:33;3.50;99.90
11532;DHT22;5822;51.000;5.874;2022-12-18T15:54:02;3.40;99.90
11532;DHT22;5822;51.000;5.874;2022-12-18T15:56:29;3.40;99.90
11532;DHT22;5822;51.000;5.874;2022-12-18T15:59:15;3.40;99.90
11532;DHT22;5822;51.000;5.874;2022-12-18T16:01:42;3.40;99.90
11532;DHT22;5822;51.000;5.874;2022-12-18T16:04:12;3.50;99.90
11532;DHT22;5822;51.000;5.874;2022-12-18T16:06:39;3.40;99.90
11532;DHT22;5822;51.000;5.874;2022-12-18T16:09:05;3.40;99.90
11532;DHT22;5822;51.000;5.874;2022-12-18T16:11:33;3.40;99.90
11532;DHT22;5822;51.000;5.874;2022-12-18T16:14:21;3.40;99.90
11532;DHT22;5822;51.000;5.874;2022-12-18T16:16:55;3.40;99.90
11532;DHT22;5822;51.000;5.874;2022-12-18T16:19:21;3.50;99.90
11532;DHT22;5822;51.000;5.874;2022-12-18T16:21:49;3.50;99.90
11532;DHT22;5822;51.000;5.874;2022-12-18T16:24:20;3.40;99.90
11532;DHT22;5822;51.000;5.874;2022-12-18T16:26:49;3.40;99.90
11532;DHT22;5822;51.000;5.874;2022-12-18T16:29:17;3.40;99.90
11532;DHT22;5822;51.000;5.874;2022-12-18T16:31:43;3.40;99.90
11532;DHT22;5822;51.000;5.874;2022-12-18T16:34:11;3.40;99.90
11532;DHT22;5822;51.000;5.874;2022-12-18T16:36:36;3.30;99.90
11532;DHT22;5822;51.000;5.874;2022-12-18T16:39:03;3.30;99.90
11532;DHT22;5822;51.000;5.874;2022-12-18T16:41:29;3.30;99.90
11532;DHT22;5822;51.000;5.874;2022-12-18T16:44:01;3.30;99.90
11532;DHT22;5822;51.000;5.874;2022-12-18T16:46:27;3.30;99.90
11532;DHT22;5822;51.000;5.874;2022-12-18T16:48:52;3.30;99.90
11532;DHT22;5822;51.000;5.874;2022-12-18T16:51:18;3.30;99.90
11532;DHT22;5822;51.000;5.874;2022-12-18T16:53:43;3.30;99.90
11532;DHT22;5822;51.000;5.874;2022-12-18T16:56:09;3.30;99.90
11532;DHT22;5822;51.000;5.874;2022-12-18T16:58:35;3.40;99.90
11532;DHT22;5822;51.000;5.874;2022-12-18T17:01:00;3.30;99.90
11532;DHT22;5822;51.000;5.874;2022-12-18T17:03:26;3.30;99.90
11532;DHT22;5822;51.000;5.874;2022-12-18T17:05:52;3.30;99.90
11532;DHT22;5822;51.000;5.874;2022-12-18T17:08:17;3.30;99.90
11532;DHT22;5822;51.000;5.874;2022-12-18T17:10:43;3.20;99.90
11532;DHT22;5822;51.000;5.874;2022-12-18T17:13:08;3.20;99.90
11532;DHT22;5822;51.000;5.874;2022-12-18T17:15:34;3.20;99.90
11532;DHT22;5822;51.000;5.874;2022-12-18T17:18:01;3.20;99.90
11532;DHT22;5822;51.000;5.874;2022-12-18T17:20:27;3.20;99.90
11532;DHT22;5822;51.000;5.874;2022-12-18T17:22:52;3.20;99.90
11532;DHT22;5822;51.000;5.874;2022-12-18T17:25:18;3.10;99.90
11532;DHT22;5822;51.000;5.874;2022-12-18T17:27:43;3.20;99.90
11532;DHT22;5822;51.000;5.874;2022-12-18T17:30:09;3.20;99.90
11532;DHT22;5822;51.000;5.874;2022-12-18T17:32:35;3.20;99.90
11532;DHT22;5822;51.000;5.874;2022-12-18T17:35:01;3.20;99.90
11532;DHT22;5822;51.000;5.874;2022-12-18T17:37:27;3.30;99.90
11532;DHT22;5822;51.000;5.874;2022-12-18T17:39:52;3.30;99.90
11532;DHT22;5822;51.000;5.874;2022-12-18T17:42:18;3.30;99.90
11532;DHT22;5822;51.000;5.874;2022-12-18T17:44:44;3.20;99.90
11532;DHT22;5822;51.000;5.874;2022-12-18T17:47:10;3.20;99.90
11532;DHT22;5822;51.000;5.874;2022-12-18T17:49:37;3.20;99.90
11532;DHT22;5822;51.000;5.874;2022-12-18T17:52:03;3.30;99.90
11532;DHT22;5822;51.000;5.874;2022-12-18T17:54:29;3.20;99.90
11532;DHT22;5822;51.000;5.874;2022-12-18T17:56:54;3.30;99.90
11532;DHT22;5822;51.000;5.874;2022-12-18T17:59:20;3.20;99.90
11532;DHT22;5822;51.000;5.874;2022-12-18T18:01:47;3.20;99.90
11532;DHT22;5822;51.000;5.874;2022-12-18T18:04:13;3.20;99.90
11532;DHT22;5822;51.000;5.874;2022-12-18T18:06:39;3.20;99.90
11532;DHT22;5822;51.000;5.874;2022-12-18T18:09:05;3.20;99.90
11532;DHT22;5822;51.000;5.874;2022-12-18T18:11:31;3.20;99.90
11532;DHT22;5822;51.000;5.874;2022-12-18T18:14:17;3.20;99.90
11532;DHT22;5822;51.000;5.874;2022-12-18T18:16:47;3.30;99.90
11532;DHT22;5822;51.000;5.874;2022-12-18T18:19:21;3.40;99.90
11532;DHT22;5822;51.000;5.874;2022-12-18T18:21:50;3.40;99.90
11532;DHT22;5822;51.000;5.874;2022-12-18T18:24:18;3.50;99.90
11532;DHT22;5822;51.000;5.874;2022-12-18T18:26:44;3.40;99.90
11532;DHT22;5822;51.000;5.874;2022-12-18T18:29:20;3.40;99.90
11532;DHT22;5822;51.000;5.874;2022-12-18T18:31:46;3.30;99.90
11532;DHT22;5822;51.000;5.874;2022-12-18T18:34:20;3.40;99.90
11532;DHT22;5822;51.000;5.874;2022-12-18T18:36:46;3.40;99.90
11532;DHT22;5822;51.000;5.874;2022-12-18T18:39:13;3.30;99.90